sensor_id;sensor_type;location;lat;lon;timestamp;temperature;humidity
1524;DHT22;755;53.658;10.118;2023-08-20T00:09:32;18.80;99.90
1524;DHT22;755;53.658;10.118;2023-08-20T00:19:36;18.60;99.90
1524;DHT22;755;53.658;10.118;2023-08-20T00:29:38;18.60;99.90
1524;DHT22;755;53.658;10.118;2023-08-20T00:39:41;18.60;99.90
1524;DHT22;755;53.658;10.118;2023-08-20T00:49:43;18.40;99.90
1524;DHT22;755;53.658;10.118;2023-08-20T00:59:48;18.30;99.90
1524;DHT22;755;53.658;10.118;2023-08-20T01:10:00;18.20;99.90
1524;DHT22;755;53.658;10.118;2023-08-20T01:20:06;17.90;99.90
1524;DHT22;755;53.658;10.118;2023-08-20T01:30:10;17.80;99.90
1524;DHT22;755;53.658;10.118;2023-08-20T01:40:13;17.50;99.90
1524;DHT22;755;53.658;10.118;2023-08-20T01:50:16;17.40;99.90
1524;DHT22;755;53.658;10.118;2023-08-20T02:00:18;17.30;99.90
1524;DHT22;755;53.658;10.118;2023-08-20T02:10:22;17.20;99.90
1524;DHT22;755;53.658;10.118;2023-08-20T02:20:26;17.00;99.90
1524;DHT22;755;53.658;10.118;2023-08-20T02:30:39;16.90;99.90
1524;DHT22;755;53.658;10.118;2023-08-20T02:40:42;16.90;99.90
1524;DHT22;755;53.658;10.118;2023-08-20T02:50:45;16.60;99.90
1524;DHT22;755;53.658;10.118;2023-08-20T03:00:47;16.40;99.90
1524;DHT22;755;53.658;10.118;2023-08-20T03:10:50;16.50;99.90
1524;DHT22;755;53.658;10.118;2023-08-20T03:20:54;16.40;99.90
1524;DHT22;755;53.658;10.118;2023-08-20T03:31:00;16.20;99.90
1524;DHT22;755;53.658;10.118;2023-08-20T03:41:03;16.10;99.90
1524;DHT22;755;53.658;10.118;2023-08-20T03:51:07;15.90;99.90
1524;DHT22;755;53.658;10.118;2023-08-20T04:01:10;15.70;99.90
1524;DHT22;755;53.658;10.118;2023-08-20T04:11:14;15.70;99.90
1524;DHT22;755;53.658;10.118;2023-08-20T04:21:17;15.60;99.90
1524;DHT22;755;53.658;10.118;2023-08-20T04:31:21;15.60;99.90
1524;DHT22;755;53.658;10.118;2023-08-20T04:41:23;15.50;99.90
1524;DHT22;755;53.658;10.118;2023-08-20T04:51:26;15.40;99.90
1524;DHT22;755;53.658;10.118;2023-08-20T05:01:28;15.50;99.90
1524;DHT22;755;53.658;10.118;2023-08-20T05:11:32;15.50;99.90
1524;DHT22;755;53.658;10.118;2023-08-20T05:21:35;15.60;99.90
1524;DHT22;755;53.658;10.118;2023-08-20T05:31:38;16.00;99.90
1524;DHT22;755;53.658;10.118;2023-08-20T05:41:40;16.30;99.90
1524;DHT22;755;53.658;10.118;2023-08-20T05:51:45;16.50;99.90
1524;DHT22;755;53.658;10.118;2023-08-20T06:01:47;16.90;99.90
1524;DHT22;755;53.658;10.118;2023-08-20T06:11:51;17.20;99.90
1524;DHT22;755;53.658;10.118;2023-08-20T06:21:53;17.30;99.90
1524;DHT22;755;53.658;10.118;2023-08-20T06:31:56;17.50;99.90
1524;DHT22;755;53.658;10.118;2023-08-20T06:41:58;17.70;99.90
1524;DHT22;755;53.658;10.118;2023-08-20T06:52:02;17.70;99.90
1524;DHT22;755;53.658;10.118;2023-08-20T07:02:05;18.00;99.90
1524;DHT22;755;53.658;10.118;2023-08-20T07:24:16;18.60;99.90
1524;DHT22;755;53.658;10.118;2023-08-20T07:35:16;18.80;99.90
1524;DHT22;755;53.658;10.118;2023-08-20T07:45:27;19.30;99.90
1524;DHT22;755;53.658;10.118;2023-08-20T07:55:30;19.70;99.90
1524;DHT22;755;53.658;10.118;2023-08-20T08:05:34;20.10;99.90
1524;DHT22;755;53.658;10.118;2023-08-20T08:15:38;21.50;99.90
1524;DHT22;755;53.658;10.118;2023-08-20T08:25:41;21.30;99.90
1524;DHT22;755;53.658;10.118;2023-08-20T08:35:43;21.30;99.90
1524;DHT22;755;53.658;10.118;2023-08-20T08:45:47;22.70;99.90
1524;DHT22;755;53.658;10.118;2023-08-20T08:55:49;22.60;1.00
1524;DHT22;755;53.658;10.118;2023-08-20T09:05:57;23.50;38.20
1524;DHT22;755;53.658;10.118;2023-08-20T09:16:02;24.20;1.00
1524;DHT22;755;53.658;10.118;2023-08-20T09:26:06;24.40;99.90
1524;DHT22;755;53.658;10.118;2023-08-20T09:36:08;24.20;99.90
1524;DHT22;755;53.658;10.118;2023-08-20T09:46:13;24.30;4.70
1524;DHT22;755;53.658;10.118;2023-08-20T09:56:21;24.90;1.00
1524;DHT22;755;53.658;10.118;2023-08-20T10:06:25;25.90;99.90
1524;DHT22;755;53.658;10.118;2023-08-20T10:16:27;26.00;1.00
1524;DHT22;755;53.658;10.118;2023-08-20T10:26:33;25.90;64.10
1524;DHT22;755;53.658;10.118;2023-08-20T10:36:41;25.40;99.90
1524;DHT22;755;53.658;10.118;2023-08-20T10:46:50;25.20;99.90
1524;DHT22;755;53.658;10.118;2023-08-20T10:56:55;24.70;1.00
1524;DHT22;755;53.658;10.118;2023-08-20T11:07:00;25.30;99.90
1524;DHT22;755;53.658;10.118;2023-08-20T11:17:02;25.90;99.90
1524;DHT22;755;53.658;10.118;2023-08-20T11:27:05;25.20;1.00
1524;DHT22;755;53.658;10.118;2023-08-20T11:37:07;25.30;1.00
1524;DHT22;755;53.658;10.118;2023-08-20T11:47:15;25.60;1.00
1524;DHT22;755;53.658;10.118;2023-08-20T11:57:18;26.10;1.00
1524;DHT22;755;53.658;10.118;2023-08-20T12:07:25;25.90;99.90
1524;DHT22;755;53.658;10.118;2023-08-20T12:17:27;26.10;1.00
1524;DHT22;755;53.658;10.118;2023-08-20T12:27:30;26.00;99.90
1524;DHT22;755;53.658;10.118;2023-08-20T12:37:32;26.60;99.90
1524;DHT22;755;53.658;10.118;2023-08-20T12:47:36;26.50;1.00
1524;DHT22;755;53.658;10.118;2023-08-20T12:57:52;25.80;99.90
1524;DHT22;755;53.658;10.118;2023-08-20T13:07:56;25.80;50.80
1524;DHT22;755;53.658;10.118;2023-08-20T13:17:58;25.90;1.00
1524;DHT22;755;53.658;10.118;2023-08-20T13:28:02;25.60;99.90
1524;DHT22;755;53.658;10.118;2023-08-20T13:38:04;26.40;1.00
1524;DHT22;755;53.658;10.118;2023-08-20T13:48:08;26.20;1.00
1524;DHT22;755;53.658;10.118;2023-08-20T13:58:10;26.40;99.90
1524;DHT22;755;53.658;10.118;2023-08-20T14:08:13;26.00;1.00
1524;DHT22;755;53.658;10.118;2023-08-20T14:18:15;25.40;1.00
1524;DHT22;755;53.658;10.118;2023-08-20T14:28:18;26.10;1.00
1524;DHT22;755;53.658;10.118;2023-08-20T14:38:20;25.20;1.00
1524;DHT22;755;53.658;10.118;2023-08-20T14:48:24;25.10;1.00
1524;DHT22;755;53.658;10.118;2023-08-20T14:58:27;25.10;1.00
1524;DHT22;755;53.658;10.118;2023-08-20T15:08:30;24.90;1.00
1524;DHT22;755;53.658;10.118;2023-08-20T15:18:33;24.90;1.00
1524;DHT22;755;53.658;10.118;2023-08-20T15:28:36;24.90;1.00
1524;DHT22;755;53.658;10.118;2023-08-20T15:38:38;24.60;66.80
1524;DHT22;755;53.658;10.118;2023-08-20T15:48:41;24.50;1.00
1524;DHT22;755;53.658;10.118;2023-08-20T15:58:43;24.20;1.00
1524;DHT22;755;53.658;10.118;2023-08-20T16:08:46;24.20;99.90
1524;DHT22;755;53.658;10.118;2023-08-20T16:18:48;24.20;99.90
1524;DHT22;755;53.658;10.118;2023-08-20T16:28:52;24.00;99.90
1524;DHT22;755;53.658;10.118;2023-08-20T16:38:53;24.00;1.00
1524;DHT22;755;53.658;10.118;2023-08-20T16:48:57;23.80;99.90
1524;DHT22;755;53.658;10.118;2023-08-20T16:59:04;23.70;99.90
1524;DHT22;755;53.658;10.118;2023-08-20T17:09:10;23.50;99.90
1524;DHT22;755;53.658;10.118;2023-08-20T17:19:19;23.40;1.00
1524;DHT22;755;53.658;10.118;2023-08-20T17:29:25;23.40;99.90
1524;DHT22;755;53.658;10.118;2023-08-20T17:39:27;23.20;72.80
1524;DHT22;755;53.658;10.118;2023-08-20T17:49:31;23.00;1.00
1524;DHT22;755;53.658;10.118;2023-08-20T17:59:33;22.80;1.00
1524;DHT22;755;53.658;10.118;2023-08-20T18:09:36;22.60;99.90
1524;DHT22;755;53.658;10.118;2023-08-20T18:19:38;22.40;1.00
1524;DHT22;755;53.658;10.118;2023-08-20T18:29:42;22.00;1.00
1524;DHT22;755;53.658;10.118;2023-08-20T18:39:46;22.10;99.90
1524;DHT22;755;53.658;10.118;2023-08-20T18:49:49;22.10;99.90
1524;DHT22;755;53.658;10.118;2023-08-20T18:59:51;21.90;1.00
1524;DHT22;755;53.658;10.118;2023-08-20T19:09:54;21.90;1.00
1524;DHT22;755;53.658;10.118;2023-08-20T19:19:57;21.40;99.90
1524;DHT22;755;53.658;10.118;2023-08-20T19:30:01;21.00;99.90
1524;DHT22;755;53.658;10.118;2023-08-20T19:40:04;20.90;99.90
1524;DHT22;755;53.658;10.118;2023-08-20T19:50:11;20.80;99.90
1524;DHT22;755;53.658;10.118;2023-08-20T20:00:17;20.50;99.90
1524;DHT22;755;53.658;10.118;2023-08-20T20:10:21;20.00;99.90
1524;DHT22;755;53.658;10.118;2023-08-20T20:20:23;19.50;99.90
1524;DHT22;755;53.658;10.118;2023-08-20T20:30:29;19.40;99.90
1524;DHT22;755;53.658;10.118;2023-08-20T20:40:31;19.40;99.90
1524;DHT22;755;53.658;10.118;2023-08-20T20:50:41;19.20;99.90
1524;DHT22;755;53.658;10.118;2023-08-20T21:00:43;19.20;99.90
1524;DHT22;755;53.658;10.118;2023-08-20T21:10:48;19.30;99.90
1524;DHT22;755;53.658;10.118;2023-08-20T21:21:03;19.10;99.90
1524;DHT22;755;53.658;10.118;2023-08-20T21:31:07;18.60;99.90
1524;DHT22;755;53.658;10.118;2023-08-20T21:41:09;18.60;99.90
1524;DHT22;755;53.658;10.118;2023-08-20T21:51:13;18.50;99.90
1524;DHT22;755;53.658;10.118;2023-08-20T22:01:16;18.50;99.90
1524;DHT22;755;53.658;10.118;2023-08-20T22:11:41;18.30;99.90
1524;DHT22;755;53.658;10.118;2023-08-20T22:21:42;18.00;99.90
1524;DHT22;755;53.658;10.118;2023-08-20T22:31:46;17.80;99.90
1524;DHT22;755;53.658;10.118;2023-08-20T22:41:49;17.80;99.90
1524;DHT22;755;53.658;10.118;2023-08-20T22:51:52;17.60;99.90
1524;DHT22;755;53.658;10.118;2023-08-20T23:01:54;17.70;99.90
1524;DHT22;755;53.658;10.118;2023-08-20T23:11:57;17.60;99.90
1524;DHT22;755;53.658;10.118;2023-08-20T23:21:59;17.30;99.90
1524;DHT22;755;53.658;10.118;2023-08-20T23:32:02;17.30;99.90
1524;DHT22;755;53.658;10.118;2023-08-20T23:42:05;17.10;99.90
1524;DHT22;755;53.658;10.118;2023-08-20T23:52:08;17.00;99.90
